sensor_id;sensor_type;location;lat;lon;timestamp;P1;durP1;ratioP1;P2;durP2;ratioP2
76107;SDS011;64834;52.516;10.528;2024-01-15T00:01:40;13.63;;;6.18;;
76107;SDS011;64834;52.516;10.528;2024-01-15T00:04:08;13.05;;;5.95;;
76107;SDS011;64834;52.516;10.528;2024-01-15T00:06:33;13.38;;;4.40;;
76107;SDS011;64834;52.516;10.528;2024-01-15T00:08:58;10.68;;;4.72;;
76107;SDS011;64834;52.516;10.528;2024-01-15T00:11:24;9.35;;;5.07;;
76107;SDS011;64834;52.516;10.528;2024-01-15T00:13:49;13.07;;;6.10;;
76107;SDS011;64834;52.516;10.528;2024-01-15T00:16:14;16.83;;;6.90;;
76107;SDS011;64834;52.516;10.528;2024-01-15T00:18:40;12.35;;;6.13;;
76107;SDS011;64834;52.516;10.528;2024-01-15T00:21:05;11.85;;;5.28;;
76107;SDS011;64834;52.516;10.528;2024-01-15T00:23:30;13.77;;;6.43;;
76107;SDS011;64834;52.516;10.528;2024-01-15T00:25:56;10.18;;;4.38;;
76107;SDS011;64834;52.516;10.528;2024-01-15T00:28:21;10.55;;;4.35;;
76107;SDS011;64834;52.516;10.528;2024-01-15T00:30:46;7.93;;;3.92;;
76107;SDS011;64834;52.516;10.528;2024-01-15T00:33:12;13.63;;;4.47;;
76107;SDS011;64834;52.516;10.528;2024-01-15T00:35:37;9.07;;;3.42;;
76107;SDS011;64834;52.516;10.528;2024-01-15T00:38:03;13.00;;;4.03;;
76107;SDS011;64834;52.516;10.528;2024-01-15T00:40:28;9.25;;;4.38;;
76107;SDS011;64834;52.516;10.528;2024-01-15T00:42:54;12.38;;;4.57;;
76107;SDS011;64834;52.516;10.528;2024-01-15T00:45:19;11.70;;;4.25;;
76107;SDS011;64834;52.516;10.528;2024-01-15T00:47:44;12.00;;;5.28;;
76107;SDS011;64834;52.516;10.528;2024-01-15T00:50:09;7.47;;;3.65;;
76107;SDS011;64834;52.516;10.528;2024-01-15T00:52:35;10.60;;;3.45;;
76107;SDS011;64834;52.516;10.528;2024-01-15T00:55:00;12.32;;;3.90;;
76107;SDS011;64834;52.516;10.528;2024-01-15T00:57:25;6.60;;;3.45;;
76107;SDS011;64834;52.516;10.528;2024-01-15T00:59:51;7.07;;;3.42;;
76107;SDS011;64834;52.516;10.528;2024-01-15T01:02:16;7.97;;;3.63;;
76107;SDS011;64834;52.516;10.528;2024-01-15T01:04:42;7.82;;;3.65;;
76107;SDS011;64834;52.516;10.528;2024-01-15T01:07:07;10.75;;;3.45;;
76107;SDS011;64834;52.516;10.528;2024-01-15T01:09:32;12.10;;;2.80;;
76107;SDS011;64834;52.516;10.528;2024-01-15T01:11:58;6.00;;;1.95;;
76107;SDS011;64834;52.516;10.528;2024-01-15T01:14:23;9.32;;;3.00;;
76107;SDS011;64834;52.516;10.528;2024-01-15T01:16:48;7.03;;;2.38;;
76107;SDS011;64834;52.516;10.528;2024-01-15T01:19:14;9.00;;;3.67;;
76107;SDS011;64834;52.516;10.528;2024-01-15T01:21:39;6.95;;;3.40;;
76107;SDS011;64834;52.516;10.528;2024-01-15T01:24:04;7.05;;;3.38;;
76107;SDS011;64834;52.516;10.528;2024-01-15T01:26:30;5.93;;;2.58;;
76107;SDS011;64834;52.516;10.528;2024-01-15T01:28:56;6.07;;;2.45;;
76107;SDS011;64834;52.516;10.528;2024-01-15T01:31:23;8.68;;;2.72;;
76107;SDS011;64834;52.516;10.528;2024-01-15T01:33:48;8.32;;;3.33;;
76107;SDS011;64834;52.516;10.528;2024-01-15T01:36:14;12.75;;;2.72;;
76107;SDS011;64834;52.516;10.528;2024-01-15T01:38:39;9.35;;;3.38;;
76107;SDS011;64834;52.516;10.528;2024-01-15T01:41:05;10.35;;;3.53;;
76107;SDS011;64834;52.516;10.528;2024-01-15T01:43:30;6.88;;;2.88;;
76107;SDS011;64834;52.516;10.528;2024-01-15T01:45:56;10.95;;;3.35;;
76107;SDS011;64834;52.516;10.528;2024-01-15T01:48:23;9.77;;;2.92;;
76107;SDS011;64834;52.516;10.528;2024-01-15T01:50:50;4.72;;;2.42;;
76107;SDS011;64834;52.516;10.528;2024-01-15T01:53:18;10.23;;;3.25;;
76107;SDS011;64834;52.516;10.528;2024-01-15T01:55:43;8.95;;;2.28;;
76107;SDS011;64834;52.516;10.528;2024-01-15T01:58:08;10.05;;;2.78;;
76107;SDS011;64834;52.516;10.528;2024-01-15T02:00:34;5.50;;;1.73;;
76107;SDS011;64834;52.516;10.528;2024-01-15T02:03:00;6.65;;;2.33;;
76107;SDS011;64834;52.516;10.528;2024-01-15T02:05:28;4.03;;;1.42;;
76107;SDS011;64834;52.516;10.528;2024-01-15T02:07:54;3.60;;;1.77;;
76107;SDS011;64834;52.516;10.528;2024-01-15T02:10:19;6.00;;;1.88;;
76107;SDS011;64834;52.516;10.528;2024-01-15T02:12:44;6.35;;;1.95;;
76107;SDS011;64834;52.516;10.528;2024-01-15T02:15:10;6.80;;;2.05;;
76107;SDS011;64834;52.516;10.528;2024-01-15T02:17:55;4.47;;;1.88;;
76107;SDS011;64834;52.516;10.528;2024-01-15T02:20:21;6.88;;;1.83;;
76107;SDS011;64834;52.516;10.528;2024-01-15T02:22:47;3.28;;;1.52;;
76107;SDS011;64834;52.516;10.528;2024-01-15T02:25:12;3.47;;;1.58;;
76107;SDS011;64834;52.516;10.528;2024-01-15T02:27:37;2.92;;;1.10;;
76107;SDS011;64834;52.516;10.528;2024-01-15T02:30:03;5.38;;;1.83;;
76107;SDS011;64834;52.516;10.528;2024-01-15T02:32:30;6.75;;;2.20;;
76107;SDS011;64834;52.516;10.528;2024-01-15T02:34:55;8.38;;;1.65;;
76107;SDS011;64834;52.516;10.528;2024-01-15T02:37:21;5.75;;;1.80;;
76107;SDS011;64834;52.516;10.528;2024-01-15T02:39:46;3.75;;;0.95;;
76107;SDS011;64834;52.516;10.528;2024-01-15T02:42:11;5.75;;;1.77;;
76107;SDS011;64834;52.516;10.528;2024-01-15T02:44:36;5.18;;;1.45;;
76107;SDS011;64834;52.516;10.528;2024-01-15T02:47:02;4.85;;;1.48;;
76107;SDS011;64834;52.516;10.528;2024-01-15T02:49:27;3.17;;;1.17;;
76107;SDS011;64834;52.516;10.528;2024-01-15T02:51:53;5.97;;;1.88;;
76107;SDS011;64834;52.516;10.528;2024-01-15T02:54:18;8.88;;;1.10;;
76107;SDS011;64834;52.516;10.528;2024-01-15T02:56:43;2.97;;;0.73;;
76107;SDS011;64834;52.516;10.528;2024-01-15T02:59:08;5.40;;;1.05;;
76107;SDS011;64834;52.516;10.528;2024-01-15T03:01:34;2.40;;;0.68;;
76107;SDS011;64834;52.516;10.528;2024-01-15T03:03:59;6.38;;;1.60;;
76107;SDS011;64834;52.516;10.528;2024-01-15T03:06:24;6.30;;;1.27;;
76107;SDS011;64834;52.516;10.528;2024-01-15T03:08:50;10.57;;;1.83;;
76107;SDS011;64834;52.516;10.528;2024-01-15T03:11:15;7.55;;;1.20;;
76107;SDS011;64834;52.516;10.528;2024-01-15T03:13:40;4.50;;;1.13;;
76107;SDS011;64834;52.516;10.528;2024-01-15T03:16:06;2.25;;;1.00;;
76107;SDS011;64834;52.516;10.528;2024-01-15T03:18:31;5.25;;;1.10;;
76107;SDS011;64834;52.516;10.528;2024-01-15T03:20:56;2.45;;;1.00;;
76107;SDS011;64834;52.516;10.528;2024-01-15T03:23:22;3.08;;;0.88;;
76107;SDS011;64834;52.516;10.528;2024-01-15T03:25:47;3.47;;;1.02;;
76107;SDS011;64834;52.516;10.528;2024-01-15T03:28:12;2.95;;;0.98;;
76107;SDS011;64834;52.516;10.528;2024-01-15T03:30:37;3.95;;;1.10;;
76107;SDS011;64834;52.516;10.528;2024-01-15T03:33:03;6.38;;;1.20;;
76107;SDS011;64834;52.516;10.528;2024-01-15T03:35:28;6.20;;;0.90;;
76107;SDS011;64834;52.516;10.528;2024-01-15T03:37:55;5.65;;;0.70;;
76107;SDS011;64834;52.516;10.528;2024-01-15T03:40:21;5.90;;;1.27;;
76107;SDS011;64834;52.516;10.528;2024-01-15T03:42:46;2.80;;;0.75;;
76107;SDS011;64834;52.516;10.528;2024-01-15T03:45:11;10.15;;;1.05;;
76107;SDS011;64834;52.516;10.528;2024-01-15T03:47:37;2.67;;;0.60;;
76107;SDS011;64834;52.516;10.528;2024-01-15T03:50:02;8.35;;;1.35;;
76107;SDS011;64834;52.516;10.528;2024-01-15T03:52:27;3.25;;;0.40;;
76107;SDS011;64834;52.516;10.528;2024-01-15T03:54:53;3.20;;;0.82;;
76107;SDS011;64834;52.516;10.528;2024-01-15T03:57:18;4.53;;;0.80;;
76107;SDS011;64834;52.516;10.528;2024-01-15T03:59:43;2.40;;;0.50;;
76107;SDS011;64834;52.516;10.528;2024-01-15T04:02:09;2.50;;;0.90;;
76107;SDS011;64834;52.516;10.528;2024-01-15T04:04:34;7.22;;;0.57;;
76107;SDS011;64834;52.516;10.528;2024-01-15T04:07:00;2.47;;;0.50;;
76107;SDS011;64834;52.516;10.528;2024-01-15T04:09:25;25.95;;;1.08;;
76107;SDS011;64834;52.516;10.528;2024-01-15T04:11:50;2.13;;;0.43;;
76107;SDS011;64834;52.516;10.528;2024-01-15T04:14:16;3.55;;;1.23;;
76107;SDS011;64834;52.516;10.528;2024-01-15T04:16:41;6.57;;;1.20;;
76107;SDS011;64834;52.516;10.528;2024-01-15T04:19:06;8.48;;;1.05;;
76107;SDS011;64834;52.516;10.528;2024-01-15T04:21:32;3.90;;;1.10;;
76107;SDS011;64834;52.516;10.528;2024-01-15T04:23:57;6.20;;;0.68;;
76107;SDS011;64834;52.516;10.528;2024-01-15T04:26:22;4.85;;;0.43;;
76107;SDS011;64834;52.516;10.528;2024-01-15T04:28:48;4.22;;;0.75;;
76107;SDS011;64834;52.516;10.528;2024-01-15T04:31:23;4.07;;;1.02;;
76107;SDS011;64834;52.516;10.528;2024-01-15T04:33:48;4.68;;;0.80;;
76107;SDS011;64834;52.516;10.528;2024-01-15T04:36:14;3.78;;;0.85;;
76107;SDS011;64834;52.516;10.528;2024-01-15T04:38:39;9.88;;;1.63;;
76107;SDS011;64834;52.516;10.528;2024-01-15T04:41:04;5.20;;;0.88;;
76107;SDS011;64834;52.516;10.528;2024-01-15T04:43:30;2.63;;;0.50;;
76107;SDS011;64834;52.516;10.528;2024-01-15T04:45:55;3.90;;;0.80;;
76107;SDS011;64834;52.516;10.528;2024-01-15T04:48:20;2.88;;;0.70;;
76107;SDS011;64834;52.516;10.528;2024-01-15T04:50:47;4.95;;;1.20;;
76107;SDS011;64834;52.516;10.528;2024-01-15T04:53:13;2.28;;;0.30;;
76107;SDS011;64834;52.516;10.528;2024-01-15T04:55:39;6.85;;;0.75;;
76107;SDS011;64834;52.516;10.528;2024-01-15T04:58:04;4.80;;;0.60;;
76107;SDS011;64834;52.516;10.528;2024-01-15T05:00:29;1.88;;;0.50;;
76107;SDS011;64834;52.516;10.528;2024-01-15T05:02:54;1.88;;;0.30;;
76107;SDS011;64834;52.516;10.528;2024-01-15T05:05:21;3.53;;;0.40;;
76107;SDS011;64834;52.516;10.528;2024-01-15T05:07:46;3.40;;;0.70;;
76107;SDS011;64834;52.516;10.528;2024-01-15T05:10:11;5.45;;;0.60;;
76107;SDS011;64834;52.516;10.528;2024-01-15T05:12:37;1.20;;;0.35;;
76107;SDS011;64834;52.516;10.528;2024-01-15T05:15:02;2.15;;;0.65;;
76107;SDS011;64834;52.516;10.528;2024-01-15T05:17:28;3.97;;;0.88;;
76107;SDS011;64834;52.516;10.528;2024-01-15T05:19:53;3.58;;;0.68;;
76107;SDS011;64834;52.516;10.528;2024-01-15T05:22:18;3.95;;;0.98;;
76107;SDS011;64834;52.516;10.528;2024-01-15T05:24:44;2.28;;;0.30;;
76107;SDS011;64834;52.516;10.528;2024-01-15T05:27:09;5.47;;;1.20;;
76107;SDS011;64834;52.516;10.528;2024-01-15T05:29:34;6.63;;;1.52;;
76107;SDS011;64834;52.516;10.528;2024-01-15T05:32:00;3.72;;;0.43;;
76107;SDS011;64834;52.516;10.528;2024-01-15T05:34:25;4.40;;;0.82;;
76107;SDS011;64834;52.516;10.528;2024-01-15T05:36:50;5.85;;;1.27;;
76107;SDS011;64834;52.516;10.528;2024-01-15T05:39:16;4.22;;;0.77;;
76107;SDS011;64834;52.516;10.528;2024-01-15T05:41:41;7.10;;;1.23;;
76107;SDS011;64834;52.516;10.528;2024-01-15T05:44:07;3.20;;;0.93;;
76107;SDS011;64834;52.516;10.528;2024-01-15T05:46:32;5.50;;;0.90;;
76107;SDS011;64834;52.516;10.528;2024-01-15T05:48:57;3.30;;;0.85;;
76107;SDS011;64834;52.516;10.528;2024-01-15T05:51:22;9.13;;;1.40;;
76107;SDS011;64834;52.516;10.528;2024-01-15T05:53:48;4.20;;;0.80;;
76107;SDS011;64834;52.516;10.528;2024-01-15T05:56:13;2.65;;;0.90;;
76107;SDS011;64834;52.516;10.528;2024-01-15T05:58:38;3.33;;;0.63;;
76107;SDS011;64834;52.516;10.528;2024-01-15T06:01:04;1.63;;;0.40;;
76107;SDS011;64834;52.516;10.528;2024-01-15T06:03:29;1.52;;;0.60;;
76107;SDS011;64834;52.516;10.528;2024-01-15T06:05:54;4.30;;;1.02;;
76107;SDS011;64834;52.516;10.528;2024-01-15T06:08:20;8.52;;;0.90;;
76107;SDS011;64834;52.516;10.528;2024-01-15T06:10:46;6.38;;;1.08;;
76107;SDS011;64834;52.516;10.528;2024-01-15T06:13:11;5.53;;;0.70;;
76107;SDS011;64834;52.516;10.528;2024-01-15T06:15:36;4.18;;;0.60;;
76107;SDS011;64834;52.516;10.528;2024-01-15T06:18:02;4.13;;;0.90;;
76107;SDS011;64834;52.516;10.528;2024-01-15T06:20:27;3.05;;;0.50;;
76107;SDS011;64834;52.516;10.528;2024-01-15T06:22:52;2.38;;;1.27;;
76107;SDS011;64834;52.516;10.528;2024-01-15T06:25:18;5.18;;;1.20;;
76107;SDS011;64834;52.516;10.528;2024-01-15T06:27:43;2.17;;;0.47;;
76107;SDS011;64834;52.516;10.528;2024-01-15T06:30:08;6.53;;;1.05;;
76107;SDS011;64834;52.516;10.528;2024-01-15T06:32:34;4.03;;;0.88;;
76107;SDS011;64834;52.516;10.528;2024-01-15T06:34:59;6.70;;;1.02;;
76107;SDS011;64834;52.516;10.528;2024-01-15T06:37:25;2.55;;;0.60;;
76107;SDS011;64834;52.516;10.528;2024-01-15T06:39:50;3.20;;;0.75;;
76107;SDS011;64834;52.516;10.528;2024-01-15T06:42:15;2.67;;;0.68;;
76107;SDS011;64834;52.516;10.528;2024-01-15T06:44:41;4.93;;;0.82;;
76107;SDS011;64834;52.516;10.528;2024-01-15T06:47:06;2.47;;;0.30;;
76107;SDS011;64834;52.516;10.528;2024-01-15T06:49:31;3.78;;;0.75;;
76107;SDS011;64834;52.516;10.528;2024-01-15T06:51:57;0.80;;;0.43;;
76107;SDS011;64834;52.516;10.528;2024-01-15T06:54:22;4.60;;;0.98;;
76107;SDS011;64834;52.516;10.528;2024-01-15T06:56:48;1.98;;;0.25;;
76107;SDS011;64834;52.516;10.528;2024-01-15T06:59:14;4.70;;;0.90;;
76107;SDS011;64834;52.516;10.528;2024-01-15T07:01:39;1.33;;;0.43;;
76107;SDS011;64834;52.516;10.528;2024-01-15T07:04:05;3.65;;;0.50;;
76107;SDS011;64834;52.516;10.528;2024-01-15T07:06:30;3.05;;;0.47;;
76107;SDS011;64834;52.516;10.528;2024-01-15T07:08:56;1.83;;;0.55;;
76107;SDS011;64834;52.516;10.528;2024-01-15T07:11:21;6.38;;;0.98;;
76107;SDS011;64834;52.516;10.528;2024-01-15T07:13:47;1.67;;;0.50;;
76107;SDS011;64834;52.516;10.528;2024-01-15T07:16:12;1.77;;;0.45;;
76107;SDS011;64834;52.516;10.528;2024-01-15T07:18:37;1.95;;;0.63;;
76107;SDS011;64834;52.516;10.528;2024-01-15T07:21:03;2.13;;;0.52;;
76107;SDS011;64834;52.516;10.528;2024-01-15T07:23:30;4.38;;;0.80;;
76107;SDS011;64834;52.516;10.528;2024-01-15T07:25:56;1.80;;;0.50;;
76107;SDS011;64834;52.516;10.528;2024-01-15T07:28:21;3.40;;;0.75;;
76107;SDS011;64834;52.516;10.528;2024-01-15T07:30:46;3.25;;;0.88;;
76107;SDS011;64834;52.516;10.528;2024-01-15T07:33:12;2.13;;;0.50;;
76107;SDS011;64834;52.516;10.528;2024-01-15T07:35:37;8.25;;;1.58;;
76107;SDS011;64834;52.516;10.528;2024-01-15T07:38:03;6.13;;;1.27;;
76107;SDS011;64834;52.516;10.528;2024-01-15T07:40:28;1.35;;;0.52;;
76107;SDS011;64834;52.516;10.528;2024-01-15T07:42:53;11.77;;;0.82;;
76107;SDS011;64834;52.516;10.528;2024-01-15T07:45:19;3.78;;;1.10;;
76107;SDS011;64834;52.516;10.528;2024-01-15T07:47:44;6.63;;;1.73;;
76107;SDS011;64834;52.516;10.528;2024-01-15T07:50:10;2.40;;;1.20;;
76107;SDS011;64834;52.516;10.528;2024-01-15T07:52:35;3.38;;;0.60;;
76107;SDS011;64834;52.516;10.528;2024-01-15T07:55:00;3.35;;;1.15;;
76107;SDS011;64834;52.516;10.528;2024-01-15T07:57:26;3.40;;;0.82;;
76107;SDS011;64834;52.516;10.528;2024-01-15T07:59:51;5.63;;;1.33;;
76107;SDS011;64834;52.516;10.528;2024-01-15T08:02:16;4.68;;;1.00;;
76107;SDS011;64834;52.516;10.528;2024-01-15T08:04:42;2.70;;;0.70;;
76107;SDS011;64834;52.516;10.528;2024-01-15T08:07:07;5.38;;;0.98;;
76107;SDS011;64834;52.516;10.528;2024-01-15T08:09:33;1.83;;;0.38;;
76107;SDS011;64834;52.516;10.528;2024-01-15T08:11:58;2.67;;;1.05;;
76107;SDS011;64834;52.516;10.528;2024-01-15T08:14:24;2.38;;;0.70;;
76107;SDS011;64834;52.516;10.528;2024-01-15T08:16:49;3.42;;;0.70;;
76107;SDS011;64834;52.516;10.528;2024-01-15T08:19:15;2.63;;;0.80;;
76107;SDS011;64834;52.516;10.528;2024-01-15T08:21:41;8.80;;;1.15;;
76107;SDS011;64834;52.516;10.528;2024-01-15T08:24:06;1.23;;;0.63;;
76107;SDS011;64834;52.516;10.528;2024-01-15T08:26:32;1.95;;;0.52;;
76107;SDS011;64834;52.516;10.528;2024-01-15T08:28:57;3.28;;;0.60;;
76107;SDS011;64834;52.516;10.528;2024-01-15T08:31:23;1.65;;;0.70;;
76107;SDS011;64834;52.516;10.528;2024-01-15T08:33:48;3.08;;;0.77;;
76107;SDS011;64834;52.516;10.528;2024-01-15T08:36:13;3.03;;;0.80;;
76107;SDS011;64834;52.516;10.528;2024-01-15T08:38:39;4.63;;;0.90;;
76107;SDS011;64834;52.516;10.528;2024-01-15T08:41:04;2.03;;;0.80;;
76107;SDS011;64834;52.516;10.528;2024-01-15T08:43:30;1.60;;;0.60;;
76107;SDS011;64834;52.516;10.528;2024-01-15T08:45:58;2.75;;;0.82;;
76107;SDS011;64834;52.516;10.528;2024-01-15T08:48:24;1.83;;;0.98;;
76107;SDS011;64834;52.516;10.528;2024-01-15T08:50:52;1.00;;;0.40;;
76107;SDS011;64834;52.516;10.528;2024-01-15T08:53:17;2.42;;;0.73;;
76107;SDS011;64834;52.516;10.528;2024-01-15T08:55:42;2.47;;;0.90;;
76107;SDS011;64834;52.516;10.528;2024-01-15T08:58:09;1.42;;;0.60;;
76107;SDS011;64834;52.516;10.528;2024-01-15T09:00:34;2.10;;;0.93;;
76107;SDS011;64834;52.516;10.528;2024-01-15T09:02:59;1.13;;;0.38;;
76107;SDS011;64834;52.516;10.528;2024-01-15T09:05:25;4.53;;;0.60;;
76107;SDS011;64834;52.516;10.528;2024-01-15T09:07:50;1.80;;;0.80;;
76107;SDS011;64834;52.516;10.528;2024-01-15T09:10:17;1.85;;;0.63;;
76107;SDS011;64834;52.516;10.528;2024-01-15T09:12:43;2.00;;;0.90;;
76107;SDS011;64834;52.516;10.528;2024-01-15T09:15:08;6.40;;;1.05;;
76107;SDS011;64834;52.516;10.528;2024-01-15T09:17:34;3.72;;;0.75;;
76107;SDS011;64834;52.516;10.528;2024-01-15T09:19:59;2.00;;;1.02;;
76107;SDS011;64834;52.516;10.528;2024-01-15T09:22:24;3.53;;;1.70;;
76107;SDS011;64834;52.516;10.528;2024-01-15T09:24:50;1.35;;;0.47;;
76107;SDS011;64834;52.516;10.528;2024-01-15T09:27:15;3.95;;;0.93;;
76107;SDS011;64834;52.516;10.528;2024-01-15T09:29:41;1.52;;;0.47;;
76107;SDS011;64834;52.516;10.528;2024-01-15T09:32:07;11.90;;;1.08;;
76107;SDS011;64834;52.516;10.528;2024-01-15T09:34:33;1.95;;;0.82;;
76107;SDS011;64834;52.516;10.528;2024-01-15T09:36:59;2.05;;;0.77;;
76107;SDS011;64834;52.516;10.528;2024-01-15T09:39:29;12.63;;;1.27;;
76107;SDS011;64834;52.516;10.528;2024-01-15T09:41:54;1.77;;;0.60;;
76107;SDS011;64834;52.516;10.528;2024-01-15T09:44:20;3.38;;;0.85;;
76107;SDS011;64834;52.516;10.528;2024-01-15T09:46:46;2.17;;;0.65;;
76107;SDS011;64834;52.516;10.528;2024-01-15T09:49:12;2.33;;;0.73;;
76107;SDS011;64834;52.516;10.528;2024-01-15T09:51:37;1.23;;;0.40;;
76107;SDS011;64834;52.516;10.528;2024-01-15T09:54:04;2.75;;;0.95;;
76107;SDS011;64834;52.516;10.528;2024-01-15T09:56:30;3.35;;;1.00;;
76107;SDS011;64834;52.516;10.528;2024-01-15T09:58:56;4.85;;;0.82;;
76107;SDS011;64834;52.516;10.528;2024-01-15T10:01:22;2.28;;;1.00;;
76107;SDS011;64834;52.516;10.528;2024-01-15T10:03:48;1.05;;;0.57;;
76107;SDS011;64834;52.516;10.528;2024-01-15T10:06:15;2.53;;;1.00;;
76107;SDS011;64834;52.516;10.528;2024-01-15T10:08:50;2.75;;;0.63;;
76107;SDS011;64834;52.516;10.528;2024-01-15T10:11:16;2.08;;;0.80;;
76107;SDS011;64834;52.516;10.528;2024-01-15T10:13:43;3.20;;;0.88;;
76107;SDS011;64834;52.516;10.528;2024-01-15T10:16:08;1.50;;;0.40;;
76107;SDS011;64834;52.516;10.528;2024-01-15T10:18:34;5.95;;;0.95;;
76107;SDS011;64834;52.516;10.528;2024-01-15T10:21:00;4.38;;;1.20;;
76107;SDS011;64834;52.516;10.528;2024-01-15T10:23:34;3.58;;;1.17;;
76107;SDS011;64834;52.516;10.528;2024-01-15T10:26:01;8.55;;;1.17;;
76107;SDS011;64834;52.516;10.528;2024-01-15T10:28:27;6.30;;;0.93;;
76107;SDS011;64834;52.516;10.528;2024-01-15T10:30:55;4.88;;;1.10;;
76107;SDS011;64834;52.516;10.528;2024-01-15T10:33:22;3.97;;;1.13;;
76107;SDS011;64834;52.516;10.528;2024-01-15T10:38:18;5.95;;;1.02;;
76107;SDS011;64834;52.516;10.528;2024-01-15T10:40:47;7.78;;;1.52;;
76107;SDS011;64834;52.516;10.528;2024-01-15T10:43:12;3.88;;;0.85;;
76107;SDS011;64834;52.516;10.528;2024-01-15T10:45:37;3.47;;;1.33;;
76107;SDS011;64834;52.516;10.528;2024-01-15T10:48:03;4.90;;;1.05;;
76107;SDS011;64834;52.516;10.528;2024-01-15T10:50:29;3.58;;;0.98;;
76107;SDS011;64834;52.516;10.528;2024-01-15T10:52:54;4.13;;;1.05;;
76107;SDS011;64834;52.516;10.528;2024-01-15T10:55:21;1.50;;;0.60;;
76107;SDS011;64834;52.516;10.528;2024-01-15T10:57:48;2.95;;;0.63;;
76107;SDS011;64834;52.516;10.528;2024-01-15T11:00:14;5.50;;;0.70;;
76107;SDS011;64834;52.516;10.528;2024-01-15T11:02:40;2.83;;;0.63;;
76107;SDS011;64834;52.516;10.528;2024-01-15T11:05:07;0.85;;;0.30;;
76107;SDS011;64834;52.516;10.528;2024-01-15T11:07:32;0.30;;;0.20;;
76107;SDS011;64834;52.516;10.528;2024-01-15T11:09:57;3.30;;;0.63;;
76107;SDS011;64834;52.516;10.528;2024-01-15T11:12:23;1.98;;;0.57;;
76107;SDS011;64834;52.516;10.528;2024-01-15T11:14:49;1.58;;;0.47;;
76107;SDS011;64834;52.516;10.528;2024-01-15T11:17:15;3.58;;;0.70;;
76107;SDS011;64834;52.516;10.528;2024-01-15T11:19:43;0.77;;;0.40;;
76107;SDS011;64834;52.516;10.528;2024-01-15T11:22:10;7.18;;;0.63;;
76107;SDS011;64834;52.516;10.528;2024-01-15T11:25:01;3.65;;;0.80;;
76107;SDS011;64834;52.516;10.528;2024-01-15T11:27:42;2.30;;;0.55;;
76107;SDS011;64834;52.516;10.528;2024-01-15T11:30:09;2.10;;;0.65;;
76107;SDS011;64834;52.516;10.528;2024-01-15T11:32:35;1.58;;;0.50;;
76107;SDS011;64834;52.516;10.528;2024-01-15T11:35:01;4.78;;;0.70;;
76107;SDS011;64834;52.516;10.528;2024-01-15T11:38:12;1.55;;;0.47;;
76107;SDS011;64834;52.516;10.528;2024-01-15T11:40:19;3.38;;;0.55;;
76107;SDS011;64834;52.516;10.528;2024-01-15T11:42:45;0.80;;;0.40;;
76107;SDS011;64834;52.516;10.528;2024-01-15T11:45:11;3.92;;;0.68;;
76107;SDS011;64834;52.516;10.528;2024-01-15T11:50:11;4.70;;;0.90;;
76107;SDS011;64834;52.516;10.528;2024-01-15T11:52:37;1.20;;;0.30;;
76107;SDS011;64834;52.516;10.528;2024-01-15T11:55:10;4.20;;;1.10;;
76107;SDS011;64834;52.516;10.528;2024-01-15T11:57:55;2.75;;;0.80;;
76107;SDS011;64834;52.516;10.528;2024-01-15T12:00:23;3.60;;;1.23;;
76107;SDS011;64834;52.516;10.528;2024-01-15T12:02:49;2.70;;;0.80;;
76107;SDS011;64834;52.516;10.528;2024-01-15T12:05:16;6.57;;;1.10;;
76107;SDS011;64834;52.516;10.528;2024-01-15T12:07:42;1.48;;;0.65;;
76107;SDS011;64834;52.516;10.528;2024-01-15T12:10:12;2.83;;;0.82;;
76107;SDS011;64834;52.516;10.528;2024-01-15T12:12:44;4.72;;;0.82;;
76107;SDS011;64834;52.516;10.528;2024-01-15T12:15:18;1.08;;;0.30;;
76107;SDS011;64834;52.516;10.528;2024-01-15T12:17:44;3.33;;;0.60;;
76107;SDS011;64834;52.516;10.528;2024-01-15T12:20:10;1.75;;;0.63;;
76107;SDS011;64834;52.516;10.528;2024-01-15T12:22:37;3.97;;;0.68;;
76107;SDS011;64834;52.516;10.528;2024-01-15T12:25:03;2.38;;;0.75;;
76107;SDS011;64834;52.516;10.528;2024-01-15T12:27:28;4.35;;;0.90;;
76107;SDS011;64834;52.516;10.528;2024-01-15T12:29:54;2.83;;;0.63;;
76107;SDS011;64834;52.516;10.528;2024-01-15T12:32:19;5.78;;;0.80;;
76107;SDS011;64834;52.516;10.528;2024-01-15T12:34:46;0.50;;;0.30;;
76107;SDS011;64834;52.516;10.528;2024-01-15T12:37:11;2.05;;;0.50;;
76107;SDS011;64834;52.516;10.528;2024-01-15T12:39:37;1.95;;;0.70;;
76107;SDS011;64834;52.516;10.528;2024-01-15T12:42:02;4.03;;;0.75;;
76107;SDS011;64834;52.516;10.528;2024-01-15T12:44:29;5.13;;;0.60;;
76107;SDS011;64834;52.516;10.528;2024-01-15T12:46:54;1.05;;;0.40;;
76107;SDS011;64834;52.516;10.528;2024-01-15T12:49:20;2.83;;;0.52;;
76107;SDS011;64834;52.516;10.528;2024-01-15T12:52:19;1.30;;;0.50;;
76107;SDS011;64834;52.516;10.528;2024-01-15T12:54:38;4.53;;;1.10;;
76107;SDS011;64834;52.516;10.528;2024-01-15T12:57:03;5.18;;;1.27;;
76107;SDS011;64834;52.516;10.528;2024-01-15T12:59:28;3.78;;;0.50;;
76107;SDS011;64834;52.516;10.528;2024-01-15T13:01:54;1.20;;;0.38;;
76107;SDS011;64834;52.516;10.528;2024-01-15T13:04:23;2.20;;;0.40;;
76107;SDS011;64834;52.516;10.528;2024-01-15T13:06:49;1.48;;;0.60;;
76107;SDS011;64834;52.516;10.528;2024-01-15T13:09:15;2.17;;;0.93;;
76107;SDS011;64834;52.516;10.528;2024-01-15T13:11:40;2.35;;;0.60;;
76107;SDS011;64834;52.516;10.528;2024-01-15T13:14:06;1.83;;;0.63;;
76107;SDS011;64834;52.516;10.528;2024-01-15T13:16:31;5.22;;;0.80;;
76107;SDS011;64834;52.516;10.528;2024-01-15T13:18:57;1.67;;;0.20;;
76107;SDS011;64834;52.516;10.528;2024-01-15T13:21:23;3.85;;;0.50;;
76107;SDS011;64834;52.516;10.528;2024-01-15T13:23:49;1.85;;;0.38;;
76107;SDS011;64834;52.516;10.528;2024-01-15T13:26:14;1.98;;;0.70;;
76107;SDS011;64834;52.516;10.528;2024-01-15T13:28:40;4.22;;;0.63;;
76107;SDS011;64834;52.516;10.528;2024-01-15T13:31:05;1.67;;;0.60;;
76107;SDS011;64834;52.516;10.528;2024-01-15T13:33:30;4.43;;;0.50;;
76107;SDS011;64834;52.516;10.528;2024-01-15T13:35:56;0.98;;;0.45;;
76107;SDS011;64834;52.516;10.528;2024-01-15T13:38:21;1.90;;;0.60;;
76107;SDS011;64834;52.516;10.528;2024-01-15T13:40:46;2.53;;;0.75;;
76107;SDS011;64834;52.516;10.528;2024-01-15T13:43:12;4.68;;;1.02;;
76107;SDS011;64834;52.516;10.528;2024-01-15T13:45:39;2.22;;;0.30;;
76107;SDS011;64834;52.516;10.528;2024-01-15T13:48:04;3.53;;;0.90;;
76107;SDS011;64834;52.516;10.528;2024-01-15T13:50:39;2.10;;;0.70;;
76107;SDS011;64834;52.516;10.528;2024-01-15T13:53:04;9.43;;;1.35;;
76107;SDS011;64834;52.516;10.528;2024-01-15T13:55:30;2.13;;;0.47;;
76107;SDS011;64834;52.516;10.528;2024-01-15T13:57:55;6.55;;;0.45;;
76107;SDS011;64834;52.516;10.528;2024-01-15T14:00:20;1.67;;;0.70;;
76107;SDS011;64834;52.516;10.528;2024-01-15T14:02:46;2.38;;;0.57;;
76107;SDS011;64834;52.516;10.528;2024-01-15T14:05:12;5.63;;;0.70;;
76107;SDS011;64834;52.516;10.528;2024-01-15T14:07:38;1.00;;;0.43;;
76107;SDS011;64834;52.516;10.528;2024-01-15T14:10:04;2.13;;;0.57;;
76107;SDS011;64834;52.516;10.528;2024-01-15T14:12:30;3.75;;;1.02;;
76107;SDS011;64834;52.516;10.528;2024-01-15T14:14:55;3.00;;;0.60;;
76107;SDS011;64834;52.516;10.528;2024-01-15T14:17:21;2.60;;;0.55;;
76107;SDS011;64834;52.516;10.528;2024-01-15T14:19:46;1.08;;;0.35;;
76107;SDS011;64834;52.516;10.528;2024-01-15T14:22:11;2.72;;;0.80;;
76107;SDS011;64834;52.516;10.528;2024-01-15T14:24:37;1.77;;;0.88;;
76107;SDS011;64834;52.516;10.528;2024-01-15T14:27:02;1.85;;;0.73;;
76107;SDS011;64834;52.516;10.528;2024-01-15T14:29:30;3.13;;;1.05;;
76107;SDS011;64834;52.516;10.528;2024-01-15T14:31:55;2.30;;;0.30;;